sensor_id;sensor_type;location;lat;lon;timestamp;pressure;altitude;pressure_sealevel;temperature;humidity
80699;BME280;70062;51.658;5.658;2023-08-21T00:01:41;102112.23;;;20.16;65.66
80699;BME280;70062;51.658;5.658;2023-08-21T00:04:06;102114.05;;;20.19;65.53
80699;BME280;70062;51.658;5.658;2023-08-21T00:06:32;102111.66;;;20.21;65.70
80699;BME280;70062;51.658;5.658;2023-08-21T00:08:57;102111.91;;;20.24;65.84
80699;BME280;70062;51.658;5.658;2023-08-21T00:11:23;102106.03;;;20.25;65.79
80699;BME280;70062;51.658;5.658;2023-08-21T00:13:48;102105.19;;;20.26;65.59
80699;BME280;70062;51.658;5.658;2023-08-21T00:16:15;102107.43;;;20.26;65.51
80699;BME280;70062;51.658;5.658;2023-08-21T00:18:41;102109.66;;;20.24;65.37
80699;BME280;70062;51.658;5.658;2023-08-21T00:21:06;102108.23;;;20.23;65.48
80699;BME280;70062;51.658;5.658;2023-08-21T00:23:32;102105.20;;;20.21;65.42
80699;BME280;70062;51.658;5.658;2023-08-21T00:25:57;102101.80;;;20.18;65.50
80699;BME280;70062;51.658;5.658;2023-08-21T00:28:22;102101.33;;;20.14;65.46
80699;BME280;70062;51.658;5.658;2023-08-21T00:30:48;102107.32;;;20.09;65.51
80699;BME280;70062;51.658;5.658;2023-08-21T00:33:13;102109.83;;;20.06;65.55
80699;BME280;70062;51.658;5.658;2023-08-21T00:35:39;102108.92;;;20.05;65.69
80699;BME280;70062;51.658;5.658;2023-08-21T00:38:04;102102.80;;;20.05;65.97
80699;BME280;70062;51.658;5.658;2023-08-21T00:40:31;102102.85;;;20.06;65.82
80699;BME280;70062;51.658;5.658;2023-08-21T00:42:56;102100.49;;;20.09;65.87
80699;BME280;70062;51.658;5.658;2023-08-21T00:45:22;102100.09;;;20.13;65.91
80699;BME280;70062;51.658;5.658;2023-08-21T00:47:47;102100.39;;;20.17;65.72
80699;BME280;70062;51.658;5.658;2023-08-21T00:50:13;102102.10;;;20.22;65.70
80699;BME280;70062;51.658;5.658;2023-08-21T00:52:40;102102.94;;;20.27;65.54
80699;BME280;70062;51.658;5.658;2023-08-21T00:55:06;102099.74;;;20.31;65.52
80699;BME280;70062;51.658;5.658;2023-08-21T00:57:33;102097.73;;;20.33;65.49
80699;BME280;70062;51.658;5.658;2023-08-21T01:00:00;102096.69;;;20.34;65.35
80699;BME280;70062;51.658;5.658;2023-08-21T01:02:26;102090.75;;;20.34;65.25
80699;BME280;70062;51.658;5.658;2023-08-21T01:04:51;102085.14;;;20.32;65.21
80699;BME280;70062;51.658;5.658;2023-08-21T01:07:17;102084.05;;;20.31;65.21
80699;BME280;70062;51.658;5.658;2023-08-21T01:12:28;102094.63;;;20.23;65.03
80699;BME280;70062;51.658;5.658;2023-08-21T01:15:03;102094.25;;;20.16;65.22
80699;BME280;70062;51.658;5.658;2023-08-21T01:17:30;102096.81;;;20.08;65.39
80699;BME280;70062;51.658;5.658;2023-08-21T01:19:56;102096.23;;;20.00;65.54
80699;BME280;70062;51.658;5.658;2023-08-21T01:22:26;102094.44;;;19.94;65.85
80699;BME280;70062;51.658;5.658;2023-08-21T01:24:55;102096.61;;;19.91;66.06
80699;BME280;70062;51.658;5.658;2023-08-21T01:27:21;102094.91;;;19.92;66.34
80699;BME280;70062;51.658;5.658;2023-08-21T01:29:47;102092.51;;;19.93;66.50
80699;BME280;70062;51.658;5.658;2023-08-21T01:32:27;102093.00;;;19.97;66.63
80699;BME280;70062;51.658;5.658;2023-08-21T01:34:55;102093.88;;;20.04;66.55
80699;BME280;70062;51.658;5.658;2023-08-21T01:37:22;102092.30;;;20.08;66.61
80699;BME280;70062;51.658;5.658;2023-08-21T01:39:47;102095.22;;;20.13;66.43
80699;BME280;70062;51.658;5.658;2023-08-21T01:42:13;102090.56;;;20.15;66.24
80699;BME280;70062;51.658;5.658;2023-08-21T01:44:38;102089.14;;;20.14;66.23
80699;BME280;70062;51.658;5.658;2023-08-21T02:00:47;102089.58;;;20.77;64.51
80699;BME280;70062;51.658;5.658;2023-08-21T02:03:13;102090.73;;;20.75;64.03
80699;BME280;70062;51.658;5.658;2023-08-21T02:05:40;102086.75;;;20.57;64.28
80699;BME280;70062;51.658;5.658;2023-08-21T02:08:07;102089.05;;;20.40;64.71
80699;BME280;70062;51.658;5.658;2023-08-21T02:10:32;102086.42;;;20.23;64.88
80699;BME280;70062;51.658;5.658;2023-08-21T02:12:57;102089.24;;;20.06;65.28
80699;BME280;70062;51.658;5.658;2023-08-21T02:15:23;102085.27;;;19.90;65.69
80699;BME280;70062;51.658;5.658;2023-08-21T02:17:48;102087.39;;;19.74;65.99
80699;BME280;70062;51.658;5.658;2023-08-21T02:20:14;102084.77;;;19.57;66.55
80699;BME280;70062;51.658;5.658;2023-08-21T02:22:39;102088.31;;;19.44;66.96
80699;BME280;70062;51.658;5.658;2023-08-21T02:31:09;102092.04;;;19.20;68.32
80699;BME280;70062;51.658;5.658;2023-08-21T02:33:36;102094.38;;;19.12;68.47
80699;BME280;70062;51.658;5.658;2023-08-21T02:36:01;102092.86;;;19.08;68.84
80699;BME280;70062;51.658;5.658;2023-08-21T02:38:28;102092.89;;;19.05;68.98
80699;BME280;70062;51.658;5.658;2023-08-21T02:40:53;102098.45;;;19.00;69.26
80699;BME280;70062;51.658;5.658;2023-08-21T02:43:19;102097.14;;;18.97;69.54
80699;BME280;70062;51.658;5.658;2023-08-21T03:16:21;102097.02;;;20.75;66.62
80699;BME280;70062;51.658;5.658;2023-08-21T03:18:55;102098.02;;;20.67;66.66
80699;BME280;70062;51.658;5.658;2023-08-21T03:21:22;102096.73;;;20.41;66.99
80699;BME280;70062;51.658;5.658;2023-08-21T03:48:48;102096.16;;;20.10;65.94
80699;BME280;70062;51.658;5.658;2023-08-21T03:51:13;102095.09;;;19.81;66.55
80699;BME280;70062;51.658;5.658;2023-08-21T03:53:39;102095.52;;;19.56;67.10
80699;BME280;70062;51.658;5.658;2023-08-21T04:06:56;102093.66;;;19.91;66.42
80699;BME280;70062;51.658;5.658;2023-08-21T04:09:21;102088.88;;;19.72;66.99
80699;BME280;70062;51.658;5.658;2023-08-21T04:11:46;102091.60;;;19.48;67.48
80699;BME280;70062;51.658;5.658;2023-08-21T04:14:12;102094.00;;;19.32;67.99
80699;BME280;70062;51.658;5.658;2023-08-21T04:16:37;102094.35;;;19.16;68.33
80699;BME280;70062;51.658;5.658;2023-08-21T04:19:03;102091.60;;;19.03;68.76
80699;BME280;70062;51.658;5.658;2023-08-21T04:21:29;102098.08;;;18.89;69.14
80699;BME280;70062;51.658;5.658;2023-08-21T04:23:54;102100.23;;;18.71;69.48
80699;BME280;70062;51.658;5.658;2023-08-21T04:26:19;102101.42;;;18.52;70.22
80699;BME280;70062;51.658;5.658;2023-08-21T04:28:45;102105.02;;;18.32;70.75
80699;BME280;70062;51.658;5.658;2023-08-21T04:31:10;102105.58;;;18.14;71.21
80699;BME280;70062;51.658;5.658;2023-08-21T04:33:36;102107.47;;;18.00;71.82
80699;BME280;70062;51.658;5.658;2023-08-21T04:36:01;102108.11;;;17.90;72.31
80699;BME280;70062;51.658;5.658;2023-08-21T04:38:26;102109.49;;;17.81;72.80
80699;BME280;70062;51.658;5.658;2023-08-21T04:40:52;102110.73;;;17.72;73.41
80699;BME280;70062;51.658;5.658;2023-08-21T04:43:17;102109.39;;;17.66;73.79
80699;BME280;70062;51.658;5.658;2023-08-21T04:45:52;102106.89;;;17.60;74.11
80699;BME280;70062;51.658;5.658;2023-08-21T04:48:20;102107.53;;;17.59;74.39
80699;BME280;70062;51.658;5.658;2023-08-21T04:50:46;102112.91;;;17.63;74.58
80699;BME280;70062;51.658;5.658;2023-08-21T04:53:12;102119.26;;;17.69;74.57
80699;BME280;70062;51.658;5.658;2023-08-21T04:55:39;102120.16;;;17.70;74.97
80699;BME280;70062;51.658;5.658;2023-08-21T04:58:06;102119.04;;;17.68;74.87
80699;BME280;70062;51.658;5.658;2023-08-21T05:00:32;102119.55;;;17.72;75.01
80699;BME280;70062;51.658;5.658;2023-08-21T05:02:58;102120.80;;;17.82;74.92
80699;BME280;70062;51.658;5.658;2023-08-21T05:05:23;102120.97;;;17.95;74.95
80699;BME280;70062;51.658;5.658;2023-08-21T05:07:48;102124.01;;;18.10;74.72
80699;BME280;70062;51.658;5.658;2023-08-21T05:10:14;102132.69;;;18.23;74.45
80699;BME280;70062;51.658;5.658;2023-08-21T05:12:48;102133.37;;;18.37;74.22
80699;BME280;70062;51.658;5.658;2023-08-21T05:15:14;102133.92;;;18.51;73.96
80699;BME280;70062;51.658;5.658;2023-08-21T05:17:39;102131.89;;;18.66;73.77
80699;BME280;70062;51.658;5.658;2023-08-21T05:26:04;102132.70;;;19.17;72.55
80699;BME280;70062;51.658;5.658;2023-08-21T05:28:29;102139.33;;;19.23;72.16
80699;BME280;70062;51.658;5.658;2023-08-21T05:30:54;102145.60;;;19.23;72.00
80699;BME280;70062;51.658;5.658;2023-08-21T05:33:20;102148.48;;;19.21;72.15
80699;BME280;70062;51.658;5.658;2023-08-21T05:35:45;102147.67;;;19.22;72.07
80699;BME280;70062;51.658;5.658;2023-08-21T05:38:11;102150.51;;;19.29;71.93
80699;BME280;70062;51.658;5.658;2023-08-21T05:40:36;102154.79;;;19.37;71.86
80699;BME280;70062;51.658;5.658;2023-08-21T05:43:01;102156.36;;;19.43;71.67
80699;BME280;70062;51.658;5.658;2023-08-21T05:45:27;102153.57;;;19.52;71.67
80699;BME280;70062;51.658;5.658;2023-08-21T05:47:54;102152.85;;;19.67;71.43
80699;BME280;70062;51.658;5.658;2023-08-21T05:50:20;102155.91;;;19.81;70.97
80699;BME280;70062;51.658;5.658;2023-08-21T05:52:45;102154.17;;;19.86;70.68
80699;BME280;70062;51.658;5.658;2023-08-21T05:55:10;102153.09;;;19.91;70.48
80699;BME280;70062;51.658;5.658;2023-08-21T05:57:36;102152.19;;;20.01;70.30
80699;BME280;70062;51.658;5.658;2023-08-21T06:00:02;102157.70;;;20.16;69.94
80699;BME280;70062;51.658;5.658;2023-08-21T06:02:28;102160.81;;;20.32;69.59
80699;BME280;70062;51.658;5.658;2023-08-21T06:04:54;102165.96;;;20.45;69.32
80699;BME280;70062;51.658;5.658;2023-08-21T06:07:23;102166.09;;;20.50;69.01
80699;BME280;70062;51.658;5.658;2023-08-21T06:09:48;102164.34;;;20.50;68.98
80699;BME280;70062;51.658;5.658;2023-08-21T06:12:14;102163.39;;;20.47;68.96
80699;BME280;70062;51.658;5.658;2023-08-21T06:14:39;102161.39;;;20.44;68.79
80699;BME280;70062;51.658;5.658;2023-08-21T06:17:05;102158.59;;;20.44;68.73
80699;BME280;70062;51.658;5.658;2023-08-21T06:19:30;102160.98;;;20.48;68.52
80699;BME280;70062;51.658;5.658;2023-08-21T06:21:56;102159.06;;;20.55;68.49
80699;BME280;70062;51.658;5.658;2023-08-21T06:24:22;102162.56;;;20.61;68.35
80699;BME280;70062;51.658;5.658;2023-08-21T06:26:48;102162.90;;;20.66;68.14
80699;BME280;70062;51.658;5.658;2023-08-21T06:29:13;102164.61;;;20.71;68.02
80699;BME280;70062;51.658;5.658;2023-08-21T06:31:39;102166.73;;;20.78;67.90
80699;BME280;70062;51.658;5.658;2023-08-21T06:34:04;102163.98;;;20.84;67.58
80699;BME280;70062;51.658;5.658;2023-08-21T06:36:30;102170.60;;;20.91;67.45
80699;BME280;70062;51.658;5.658;2023-08-21T06:38:56;102170.29;;;20.98;67.15
80699;BME280;70062;51.658;5.658;2023-08-21T06:41:21;102176.05;;;21.04;66.89
80699;BME280;70062;51.658;5.658;2023-08-21T06:43:47;102173.62;;;21.11;66.70
80699;BME280;70062;51.658;5.658;2023-08-21T06:48:28;102173.25;;;21.29;66.12
80699;BME280;70062;51.658;5.658;2023-08-21T06:50:54;102173.21;;;21.41;65.60
80699;BME280;70062;51.658;5.658;2023-08-21T06:53:19;102173.67;;;21.52;65.23
80699;BME280;70062;51.658;5.658;2023-08-21T06:55:45;102173.94;;;21.63;64.61
80699;BME280;70062;51.658;5.658;2023-08-21T06:58:11;102176.99;;;21.73;63.84
80699;BME280;70062;51.658;5.658;2023-08-21T07:00:36;102174.70;;;21.80;63.52
80699;BME280;70062;51.658;5.658;2023-08-21T07:03:02;102176.30;;;21.88;63.15
80699;BME280;70062;51.658;5.658;2023-08-21T07:05:28;102177.20;;;21.96;62.46
80699;BME280;70062;51.658;5.658;2023-08-21T07:07:54;102174.84;;;22.06;61.89
80699;BME280;70062;51.658;5.658;2023-08-21T07:10:20;102174.71;;;22.17;61.48
80699;BME280;70062;51.658;5.658;2023-08-21T07:12:46;102173.98;;;22.30;60.99
80699;BME280;70062;51.658;5.658;2023-08-21T07:15:11;102175.50;;;22.44;60.58
80699;BME280;70062;51.658;5.658;2023-08-21T07:17:37;102179.63;;;22.56;60.13
80699;BME280;70062;51.658;5.658;2023-08-21T07:20:03;102178.42;;;22.65;59.81
80699;BME280;70062;51.658;5.658;2023-08-21T07:22:29;102180.53;;;22.74;59.62
80699;BME280;70062;51.658;5.658;2023-08-21T07:24:55;102178.23;;;22.80;59.50
80699;BME280;70062;51.658;5.658;2023-08-21T07:27:20;102178.20;;;22.86;58.99
80699;BME280;70062;51.658;5.658;2023-08-21T07:29:46;102180.52;;;22.89;58.72
80699;BME280;70062;51.658;5.658;2023-08-21T07:32:12;102179.88;;;22.92;58.35
80699;BME280;70062;51.658;5.658;2023-08-21T07:34:37;102178.38;;;22.95;58.16
80699;BME280;70062;51.658;5.658;2023-08-21T07:37:03;102180.02;;;23.08;58.02
80699;BME280;70062;51.658;5.658;2023-08-21T07:39:28;102181.14;;;23.32;57.67
80699;BME280;70062;51.658;5.658;2023-08-21T07:41:53;102180.41;;;23.59;57.12
80699;BME280;70062;51.658;5.658;2023-08-21T07:44:19;102176.09;;;23.84;56.69
80699;BME280;70062;51.658;5.658;2023-08-21T07:46:44;102175.86;;;24.04;56.36
80699;BME280;70062;51.658;5.658;2023-08-21T07:49:10;102179.23;;;24.18;55.61
80699;BME280;70062;51.658;5.658;2023-08-21T07:51:36;102181.61;;;24.25;55.22
80699;BME280;70062;51.658;5.658;2023-08-21T07:54:01;102184.48;;;24.27;54.76
80699;BME280;70062;51.658;5.658;2023-08-21T07:56:27;102185.27;;;24.31;54.70
80699;BME280;70062;51.658;5.658;2023-08-21T07:58:53;102186.57;;;24.37;54.24
80699;BME280;70062;51.658;5.658;2023-08-21T08:01:18;102186.63;;;24.40;53.92
80699;BME280;70062;51.658;5.658;2023-08-21T08:03:46;102191.15;;;24.51;53.65
80699;BME280;70062;51.658;5.658;2023-08-21T08:06:11;102191.69;;;24.66;53.52
80699;BME280;70062;51.658;5.658;2023-08-21T08:08:37;102192.21;;;24.80;53.25
80699;BME280;70062;51.658;5.658;2023-08-21T08:11:03;102195.95;;;24.97;52.43
80699;BME280;70062;51.658;5.658;2023-08-21T08:13:29;102196.55;;;25.20;51.93
80699;BME280;70062;51.658;5.658;2023-08-21T08:15:55;102199.35;;;25.55;51.37
80699;BME280;70062;51.658;5.658;2023-08-21T08:18:20;102195.48;;;25.95;50.55
80699;BME280;70062;51.658;5.658;2023-08-21T08:20:45;102200.68;;;26.32;49.70
80699;BME280;70062;51.658;5.658;2023-08-21T08:23:11;102199.80;;;26.67;48.63
80699;BME280;70062;51.658;5.658;2023-08-21T08:25:36;102196.39;;;26.94;47.81
80699;BME280;70062;51.658;5.658;2023-08-21T08:28:02;102193.45;;;27.12;47.38
80699;BME280;70062;51.658;5.658;2023-08-21T08:30:28;102193.84;;;27.35;47.01
80699;BME280;70062;51.658;5.658;2023-08-21T08:32:54;102193.16;;;27.63;46.08
80699;BME280;70062;51.658;5.658;2023-08-21T08:35:19;102195.84;;;27.83;45.00
80699;BME280;70062;51.658;5.658;2023-08-21T08:37:45;102189.13;;;27.97;44.31
80699;BME280;70062;51.658;5.658;2023-08-21T08:40:11;102186.82;;;28.05;44.52
80699;BME280;70062;51.658;5.658;2023-08-21T08:42:37;102188.40;;;28.08;44.09
80699;BME280;70062;51.658;5.658;2023-08-21T08:45:04;102189.10;;;28.07;43.37
80699;BME280;70062;51.658;5.658;2023-08-21T08:47:33;102186.30;;;27.98;43.47
80699;BME280;70062;51.658;5.658;2023-08-21T08:50:04;102190.02;;;27.78;43.12
80699;BME280;70062;51.658;5.658;2023-08-21T08:52:34;102192.80;;;27.60;43.34
80699;BME280;70062;51.658;5.658;2023-08-21T08:55:00;102196.67;;;27.50;43.63
80699;BME280;70062;51.658;5.658;2023-08-21T08:57:26;102200.19;;;27.35;43.83
80699;BME280;70062;51.658;5.658;2023-08-21T08:59:52;102201.77;;;27.21;43.45
80699;BME280;70062;51.658;5.658;2023-08-21T09:02:17;102201.87;;;26.99;43.79
80699;BME280;70062;51.658;5.658;2023-08-21T09:04:43;102200.05;;;26.86;43.44
80699;BME280;70062;51.658;5.658;2023-08-21T09:07:10;102197.59;;;26.85;43.21
80699;BME280;70062;51.658;5.658;2023-08-21T09:09:46;102202.91;;;26.96;43.05
80699;BME280;70062;51.658;5.658;2023-08-21T09:12:13;102201.55;;;27.05;42.78
80699;BME280;70062;51.658;5.658;2023-08-21T09:14:42;102196.25;;;27.01;42.05
80699;BME280;70062;51.658;5.658;2023-08-21T09:17:08;102192.16;;;26.96;42.65
80699;BME280;70062;51.658;5.658;2023-08-21T09:19:34;102194.14;;;27.01;42.88
80699;BME280;70062;51.658;5.658;2023-08-21T09:22:08;102194.34;;;27.11;43.10
80699;BME280;70062;51.658;5.658;2023-08-21T09:24:33;102195.77;;;27.25;42.36
80699;BME280;70062;51.658;5.658;2023-08-21T09:26:59;102192.95;;;27.27;41.98
80699;BME280;70062;51.658;5.658;2023-08-21T09:29:26;102189.74;;;27.09;42.19
80699;BME280;70062;51.658;5.658;2023-08-21T09:31:56;102191.08;;;26.92;42.62
80699;BME280;70062;51.658;5.658;2023-08-21T09:34:21;102195.48;;;26.91;42.58
80699;BME280;70062;51.658;5.658;2023-08-21T09:36:54;102190.55;;;26.92;42.27
80699;BME280;70062;51.658;5.658;2023-08-21T09:39:20;102187.80;;;27.04;42.17
80699;BME280;70062;51.658;5.658;2023-08-21T09:41:57;102187.30;;;27.21;41.92
80699;BME280;70062;51.658;5.658;2023-08-21T09:44:22;102189.27;;;27.49;42.06
80699;BME280;70062;51.658;5.658;2023-08-21T09:46:49;102184.90;;;27.78;41.61
80699;BME280;70062;51.658;5.658;2023-08-21T09:49:15;102188.56;;;28.17;40.74
80699;BME280;70062;51.658;5.658;2023-08-21T09:51:42;102191.45;;;28.56;40.50
80699;BME280;70062;51.658;5.658;2023-08-21T09:54:11;102191.44;;;28.99;39.66
80699;BME280;70062;51.658;5.658;2023-08-21T09:56:37;102191.02;;;29.38;38.64
80699;BME280;70062;51.658;5.658;2023-08-21T09:59:03;102185.92;;;29.80;38.29
80699;BME280;70062;51.658;5.658;2023-08-21T10:01:30;102186.17;;;30.27;37.53
80699;BME280;70062;51.658;5.658;2023-08-21T10:04:02;102184.51;;;30.63;36.24
80699;BME280;70062;51.658;5.658;2023-08-21T10:06:28;102182.86;;;30.80;34.57
80699;BME280;70062;51.658;5.658;2023-08-21T10:08:56;102178.79;;;30.80;34.98
80699;BME280;70062;51.658;5.658;2023-08-21T10:11:22;102176.14;;;30.92;35.78
80699;BME280;70062;51.658;5.658;2023-08-21T10:13:48;102176.00;;;31.01;34.96
80699;BME280;70062;51.658;5.658;2023-08-21T10:16:16;102177.64;;;30.87;34.50
80699;BME280;70062;51.658;5.658;2023-08-21T10:18:44;102170.25;;;30.54;34.63
80699;BME280;70062;51.658;5.658;2023-08-21T10:21:18;102173.39;;;30.44;35.22
80699;BME280;70062;51.658;5.658;2023-08-21T10:23:49;102169.42;;;30.48;34.98
80699;BME280;70062;51.658;5.658;2023-08-21T10:26:26;102163.98;;;30.45;34.55
80699;BME280;70062;51.658;5.658;2023-08-21T10:28:56;102161.70;;;30.14;34.69
80699;BME280;70062;51.658;5.658;2023-08-21T10:31:40;102160.15;;;29.91;35.32
80699;BME280;70062;51.658;5.658;2023-08-21T10:34:10;102164.05;;;29.72;35.99
80699;BME280;70062;51.658;5.658;2023-08-21T10:39:24;102168.52;;;29.41;36.22
80699;BME280;70062;51.658;5.658;2023-08-21T10:49:56;102170.34;;;29.09;35.36
80699;BME280;70062;51.658;5.658;2023-08-21T10:52:29;102173.60;;;28.98;35.14
80699;BME280;70062;51.658;5.658;2023-08-21T10:54:57;102173.27;;;28.95;35.16
80699;BME280;70062;51.658;5.658;2023-08-21T10:57:24;102179.07;;;29.00;35.55
80699;BME280;70062;51.658;5.658;2023-08-21T11:02:20;102178.95;;;29.45;35.83
80699;BME280;70062;51.658;5.658;2023-08-21T11:04:45;102179.48;;;29.69;35.67
80699;BME280;70062;51.658;5.658;2023-08-21T11:07:11;102180.73;;;29.86;34.20
80699;BME280;70062;51.658;5.658;2023-08-21T11:13:06;102172.05;;;29.86;33.91
80699;BME280;70062;51.658;5.658;2023-08-21T11:15:32;102167.02;;;29.77;34.19
80699;BME280;70062;51.658;5.658;2023-08-21T11:17:59;102166.10;;;29.80;34.65
80699;BME280;70062;51.658;5.658;2023-08-21T11:22:59;102158.05;;;30.07;35.31
80699;BME280;70062;51.658;5.658;2023-08-21T11:25:29;102157.03;;;30.20;34.83
80699;BME280;70062;51.658;5.658;2023-08-21T11:27:55;102155.19;;;30.39;34.74
80699;BME280;70062;51.658;5.658;2023-08-21T11:30:24;102157.98;;;30.57;34.04
80699;BME280;70062;51.658;5.658;2023-08-21T11:33:08;102157.84;;;30.70;33.85
80699;BME280;70062;51.658;5.658;2023-08-21T11:35:34;102156.90;;;30.74;33.35
80699;BME280;70062;51.658;5.658;2023-08-21T11:38:00;102155.13;;;30.73;33.30
80699;BME280;70062;51.658;5.658;2023-08-21T11:40:25;102160.08;;;30.75;33.16
80699;BME280;70062;51.658;5.658;2023-08-21T11:42:51;102159.38;;;30.60;32.61
80699;BME280;70062;51.658;5.658;2023-08-21T11:45:20;102154.91;;;30.34;32.55
80699;BME280;70062;51.658;5.658;2023-08-21T11:47:46;102155.53;;;30.11;32.92
80699;BME280;70062;51.658;5.658;2023-08-21T11:50:11;102153.02;;;29.95;33.43
80699;BME280;70062;51.658;5.658;2023-08-21T11:52:40;102153.45;;;30.06;34.14
80699;BME280;70062;51.658;5.658;2023-08-21T11:55:10;102154.39;;;30.32;34.01
80699;BME280;70062;51.658;5.658;2023-08-21T11:57:51;102147.84;;;30.61;33.45
80699;BME280;70062;51.658;5.658;2023-08-21T12:00:18;102150.52;;;30.86;33.56
80699;BME280;70062;51.658;5.658;2023-08-21T12:02:53;102148.98;;;31.05;32.98
80699;BME280;70062;51.658;5.658;2023-08-21T12:05:20;102141.17;;;31.19;32.98
80699;BME280;70062;51.658;5.658;2023-08-21T12:07:45;102137.55;;;31.46;32.71
80699;BME280;70062;51.658;5.658;2023-08-21T12:10:11;102137.45;;;31.91;32.51
80699;BME280;70062;51.658;5.658;2023-08-21T12:12:36;102138.81;;;32.39;31.75
80699;BME280;70062;51.658;5.658;2023-08-21T12:15:01;102141.16;;;32.70;31.69
80699;BME280;70062;51.658;5.658;2023-08-21T12:17:27;102146.58;;;32.83;30.83
80699;BME280;70062;51.658;5.658;2023-08-21T12:19:52;102146.90;;;32.68;31.12
80699;BME280;70062;51.658;5.658;2023-08-21T12:22:18;102142.45;;;32.77;31.41
80699;BME280;70062;51.658;5.658;2023-08-21T12:24:43;102137.73;;;32.72;30.67
80699;BME280;70062;51.658;5.658;2023-08-21T12:27:08;102135.87;;;32.68;30.42
80699;BME280;70062;51.658;5.658;2023-08-21T12:29:34;102137.39;;;32.80;30.44
80699;BME280;70062;51.658;5.658;2023-08-21T12:31:59;102138.86;;;32.95;30.80
80699;BME280;70062;51.658;5.658;2023-08-21T12:34:25;102134.25;;;33.17;29.99
80699;BME280;70062;51.658;5.658;2023-08-21T12:36:51;102127.27;;;33.40;29.30
80699;BME280;70062;51.658;5.658;2023-08-21T12:39:16;102122.57;;;33.56;29.02
80699;BME280;70062;51.658;5.658;2023-08-21T12:41:43;102124.65;;;33.38;28.91
80699;BME280;70062;51.658;5.658;2023-08-21T12:44:08;102128.14;;;33.27;28.79
80699;BME280;70062;51.658;5.658;2023-08-21T12:46:35;102132.53;;;33.21;28.95
80699;BME280;70062;51.658;5.658;2023-08-21T12:49:01;102131.58;;;33.17;27.89
80699;BME280;70062;51.658;5.658;2023-08-21T12:51:27;102129.91;;;32.89;28.65
80699;BME280;70062;51.658;5.658;2023-08-21T12:53:52;102123.98;;;32.83;29.20
80699;BME280;70062;51.658;5.658;2023-08-21T12:56:18;102110.64;;;32.91;29.09
80699;BME280;70062;51.658;5.658;2023-08-21T12:58:44;102110.58;;;33.09;28.88
80699;BME280;70062;51.658;5.658;2023-08-21T13:01:09;102112.98;;;33.20;28.45
80699;BME280;70062;51.658;5.658;2023-08-21T13:03:34;102122.93;;;33.13;28.24
80699;BME280;70062;51.658;5.658;2023-08-21T13:06:00;102121.63;;;33.09;28.44
80699;BME280;70062;51.658;5.658;2023-08-21T13:08:25;102114.67;;;33.31;28.22
80699;BME280;70062;51.658;5.658;2023-08-21T13:10:52;102116.06;;;33.73;27.97
80699;BME280;70062;51.658;5.658;2023-08-21T13:13:17;102114.80;;;34.12;26.63
80699;BME280;70062;51.658;5.658;2023-08-21T13:15:42;102116.51;;;34.57;26.88
80699;BME280;70062;51.658;5.658;2023-08-21T13:18:12;102112.21;;;35.09;26.20
80699;BME280;70062;51.658;5.658;2023-08-21T13:20:38;102110.77;;;35.41;25.57
80699;BME280;70062;51.658;5.658;2023-08-21T13:23:03;102111.91;;;35.40;25.60
80699;BME280;70062;51.658;5.658;2023-08-21T13:25:29;102113.55;;;35.49;25.25
80699;BME280;70062;51.658;5.658;2023-08-21T13:27:55;102112.16;;;35.78;24.87
80699;BME280;70062;51.658;5.658;2023-08-21T13:30:20;102116.65;;;36.76;23.82
80699;BME280;70062;51.658;5.658;2023-08-21T13:32:47;102108.73;;;38.06;21.73
80699;BME280;70062;51.658;5.658;2023-08-21T13:35:12;102108.29;;;39.48;20.22
80699;BME280;70062;51.658;5.658;2023-08-21T13:37:38;102116.38;;;40.60;18.80
80699;BME280;70062;51.658;5.658;2023-08-21T13:40:05;102110.41;;;41.73;18.16
80699;BME280;70062;51.658;5.658;2023-08-21T13:42:37;102115.41;;;43.25;16.63
80699;BME280;70062;51.658;5.658;2023-08-21T13:45:13;102127.55;;;44.64;15.66
80699;BME280;70062;51.658;5.658;2023-08-21T13:47:39;102125.44;;;45.79;13.98
80699;BME280;70062;51.658;5.658;2023-08-21T13:50:07;102117.29;;;46.42;13.86
80699;BME280;70062;51.658;5.658;2023-08-21T13:52:33;102115.77;;;46.94;13.17
80699;BME280;70062;51.658;5.658;2023-08-21T13:54:58;102116.35;;;47.59;12.76
80699;BME280;70062;51.658;5.658;2023-08-21T13:57:24;102115.31;;;48.31;12.28
80699;BME280;70062;51.658;5.658;2023-08-21T13:59:50;102111.98;;;48.95;11.93
80699;BME280;70062;51.658;5.658;2023-08-21T14:02:15;102104.95;;;49.78;11.76
80699;BME280;70062;51.658;5.658;2023-08-21T14:04:40;102100.08;;;50.48;11.41
80699;BME280;70062;51.658;5.658;2023-08-21T14:07:06;102096.05;;;51.23;10.39
80699;BME280;70062;51.658;5.658;2023-08-21T14:09:31;102095.60;;;51.60;9.67
80699;BME280;70062;51.658;5.658;2023-08-21T14:11:57;102094.45;;;51.21;9.44
80699;BME280;70062;51.658;5.658;2023-08-21T14:14:22;102087.45;;;51.07;9.73
80699;BME280;70062;51.658;5.658;2023-08-21T14:16:47;102091.73;;;51.67;10.02
80699;BME280;70062;51.658;5.658;2023-08-21T14:19:13;102092.95;;;52.47;9.41
80699;BME280;70062;51.658;5.658;2023-08-21T14:21:38;102092.41;;;53.28;8.65
80699;BME280;70062;51.658;5.658;2023-08-21T14:24:04;102088.06;;;53.99;8.35
80699;BME280;70062;51.658;5.658;2023-08-21T14:26:29;102086.09;;;54.58;7.91
80699;BME280;70062;51.658;5.658;2023-08-21T14:28:54;102083.52;;;54.62;7.61
80699;BME280;70062;51.658;5.658;2023-08-21T14:31:20;102085.13;;;54.94;7.38
80699;BME280;70062;51.658;5.658;2023-08-21T14:33:45;102082.10;;;55.53;7.27
80699;BME280;70062;51.658;5.658;2023-08-21T14:36:10;102074.06;;;55.94;6.88
80699;BME280;70062;51.658;5.658;2023-08-21T14:38:36;102077.20;;;56.24;6.66
80699;BME280;70062;51.658;5.658;2023-08-21T14:41:01;102075.40;;;56.28;6.33
80699;BME280;70062;51.658;5.658;2023-08-21T14:43:27;102074.75;;;56.26;6.36